Terminal Aerodrome Forecast
Issued by NWS

Home | Current Version | Previous Version | Text Only | Print | Product List | Glossary On
Versions: 1 2 3 4 5 6 7 8 9 10 11 12 13 14 15 16 17 18 19 20 21 22 23 24
292
FTUS46 KSEW 212333
TAFSEA
TAF
KSEA 212333Z 2200/2306 VRB05KT P6SM -SHRA FEW030 BKN040 BKN080
     FM220200 13006KT P6SM -SHRA SCT030 BKN040 OVC080
     FM220800 15008KT P6SM SCT040 BKN070
     FM221500 16006KT P6SM -RA BKN040 OVC070=

USA.gov is the U.S. government's official web portal to all federal, state and local government web resources and services.